Time;durP1;ratioP1;P1;durP2;ratioP2;P2;SDS_P1;SDS_P2;PMS_P1;PMS_P2;Temp;Humidity;BMP_temperature;BMP_pressure;BME280_temperature;BME280_humidity;BME280_pressure;Samples;Min_cycle;Max_cycle;Signal;HPM_P1;HPM_P2
2022/05/30 00:01:06;;;;;;;;;;;14.00;65.80;;;;;;4940048;29;19911;-68
2022/05/30 00:03:32;;;;;;;;;;;14.00;65.50;;;;;;4939711;29;19910;-67
2022/05/30 00:05:57;;;;;;;;;;;14.00;65.40;;;;;;4939897;29;19918;-69
2022/05/30 00:08:23;;;;;;;;;;;14.00;65.80;;;;;;4939973;29;20268;-64
2022/05/30 00:10:49;;;;;;;;;;;14.00;65.40;;;;;;4939772;29;19918;-62
2022/05/30 00:13:14;;;;;;;;;;;14.00;65.30;;;;;;4939725;29;19915;-65
2022/05/30 00:15:40;;;;;;;;;;;14.00;65.50;;;;;;4939664;29;20430;-64
2022/05/30 00:18:09;;;;;;;;;;;14.00;65.80;;;;;;4939673;29;19922;-66
2022/05/30 00:20:35;;;;;;;;;;;13.90;65.80;;;;;;4939853;29;20451;-65
2022/05/30 00:23:00;;;;;;;;;;;14.00;65.90;;;;;;4939425;29;20343;-62
2022/05/30 00:25:26;;;;;;;;;;;14.00;65.90;;;;;;4939428;29;19932;-58
2022/05/30 00:27:51;;;;;;;;;;;14.00;65.80;;;;;;4939753;29;19921;-70
2022/05/30 00:30:17;;;;;;;;;;;14.10;65.70;;;;;;4939661;29;19918;-71
2022/05/30 00:32:43;;;;;;;;;;;14.10;65.60;;;;;;4939202;29;19918;-72
2022/05/30 00:35:09;;;;;;;;;;;14.00;66.00;;;;;;4939411;29;20332;-59
2022/05/30 00:37:34;;;;;;;;;;;14.00;65.80;;;;;;4939169;29;19917;-60
2022/05/30 00:40:00;;;;;;;;;;;14.00;65.70;;;;;;4939266;29;20030;-71
2022/05/30 00:42:26;;;;;;;;;;;14.00;66.00;;;;;;4938991;29;20004;-67
2022/05/30 00:44:51;;;;;;;;;;;14.00;65.90;;;;;;4939190;29;19983;-63
2022/05/30 00:47:18;;;;;;;;;;;14.00;66.20;;;;;;4938910;29;20299;-66
2022/05/30 00:49:44;;;;;;;;;;;14.00;66.30;;;;;;4939008;29;19948;-66
2022/05/30 00:52:14;;;;;;;;;;;14.00;66.40;;;;;;4938866;29;19910;-63
2022/05/30 00:54:45;;;;;;;;;;;14.00;66.70;;;;;;4938903;29;19915;-66
2022/05/30 00:57:23;;;;;;;;;;;13.90;66.90;;;;;;4938820;29;20437;-63
2022/05/30 00:59:54;;;;;;;;;;;13.90;66.90;;;;;;4938859;29;19917;-70
2022/05/30 01:02:21;;;;;;;;;;;13.90;67.10;;;;;;4938865;29;19917;-64
2022/05/30 01:07:32;;;;;;;;;;;13.90;68.00;;;;;;4938760;29;20310;-64
2022/05/30 01:09:58;;;;;;;;;;;14.00;67.20;;;;;;4938694;29;19967;-62
2022/05/30 01:12:36;;;;;;;;;;;13.90;67.30;;;;;;4938819;29;20014;-67
2022/05/30 01:15:03;;;;;;;;;;;13.80;67.40;;;;;;4938519;29;19917;-68
2022/05/30 01:17:28;;;;;;;;;;;13.80;67.30;;;;;;4938849;29;19918;-65
2022/05/30 01:19:57;;;;;;;;;;;13.90;67.50;;;;;;4938500;29;20314;-72
2022/05/30 01:22:35;;;;;;;;;;;13.90;67.40;;;;;;4938311;29;19915;-71
2022/05/30 01:25:12;;;;;;;;;;;13.90;67.50;;;;;;4938462;29;19923;-69
2022/05/30 01:28:00;;;;;;;;;;;13.90;67.70;;;;;;4938309;29;19911;-71
2022/05/30 01:30:26;;;;;;;;;;;13.90;67.60;;;;;;4919806;29;19942;-70
2022/05/30 01:32:55;;;;;;;;;;;13.90;67.80;;;;;;4938391;29;19918;-72
2022/05/30 01:35:24;;;;;;;;;;;13.80;67.80;;;;;;4938265;29;20375;-71
2022/05/30 01:37:50;;;;;;;;;;;13.80;68.00;;;;;;4938165;29;20324;-70
2022/05/30 01:40:16;;;;;;;;;;;13.90;67.90;;;;;;4938198;29;20009;-71
2022/05/30 01:42:41;;;;;;;;;;;13.90;67.90;;;;;;4937929;29;20291;-72
2022/05/30 01:45:07;;;;;;;;;;;13.80;68.00;;;;;;4937885;29;20418;-71
2022/05/30 01:47:33;;;;;;;;;;;13.90;68.10;;;;;;4938240;29;19962;-71
2022/05/30 01:49:59;;;;;;;;;;;13.90;68.30;;;;;;4938020;29;19911;-70
2022/05/30 01:52:25;;;;;;;;;;;13.90;68.10;;;;;;4937707;29;19917;-61
2022/05/30 01:54:50;;;;;;;;;;;13.80;68.50;;;;;;4937733;29;20374;-66
2022/05/30 01:57:16;;;;;;;;;;;13.80;68.80;;;;;;4938047;29;19911;-67
2022/05/30 01:59:41;;;;;;;;;;;13.80;69.30;;;;;;4937838;29;19918;-69
2022/05/30 02:02:08;;;;;;;;;;;13.80;68.90;;;;;;4937679;29;19917;-64
2022/05/30 02:04:33;;;;;;;;;;;13.80;69.20;;;;;;4937684;29;19919;-68
2022/05/30 02:06:59;;;;;;;;;;;13.70;69.20;;;;;;4937697;29;20351;-66
2022/05/30 02:09:24;;;;;;;;;;;13.70;69.60;;;;;;4937151;29;20346;-72
2022/05/30 02:11:50;;;;;;;;;;;13.70;69.90;;;;;;4937587;29;20278;-71
2022/05/30 02:14:16;;;;;;;;;;;13.70;69.60;;;;;;4937343;29;19933;-66
2022/05/30 02:19:25;;;;;;;;;;;13.80;69.00;;;;;;4937523;29;20274;-67
2022/05/30 02:21:51;;;;;;;;;;;13.70;69.30;;;;;;4937192;29;19915;-62
2022/05/30 02:24:17;;;;;;;;;;;13.70;70.30;;;;;;4937255;29;19919;-61
2022/05/30 02:26:42;;;;;;;;;;;13.70;69.50;;;;;;4937570;29;20010;-67
2022/05/30 02:29:08;;;;;;;;;;;13.60;69.70;;;;;;4937361;29;19917;-69
2022/05/30 02:31:33;;;;;;;;;;;13.60;70.00;;;;;;4937204;29;20333;-56
2022/05/30 02:36:44;;;;;;;;;;;13.60;69.90;;;;;;4937668;29;19917;-58
2022/05/30 02:39:09;;;;;;;;;;;13.70;69.90;;;;;;4937132;29;19946;-60
2022/05/30 02:41:35;;;;;;;;;;;13.70;69.90;;;;;;4937092;29;20358;-58
2022/05/30 02:44:01;;;;;;;;;;;13.70;69.80;;;;;;4937205;29;19919;-58
2022/05/30 02:46:27;;;;;;;;;;;13.60;69.80;;;;;;4936938;29;20383;-57
2022/05/30 02:48:52;;;;;;;;;;;13.60;70.30;;;;;;4936699;29;19915;-58
2022/05/30 02:51:18;;;;;;;;;;;13.50;70.50;;;;;;4937032;29;19918;-66
2022/05/30 02:53:45;;;;;;;;;;;13.50;70.40;;;;;;4936086;29;20280;-63
2022/05/30 02:56:11;;;;;;;;;;;13.60;70.00;;;;;;4937068;29;19914;-65
2022/05/30 02:58:37;;;;;;;;;;;13.60;70.00;;;;;;4936664;29;19911;-67
2022/05/30 03:01:02;;;;;;;;;;;13.70;69.50;;;;;;4936762;29;19982;-69
2022/05/30 03:03:28;;;;;;;;;;;13.60;69.40;;;;;;4936563;29;19910;-65
2022/05/30 03:05:54;;;;;;;;;;;13.60;69.40;;;;;;4936634;29;19929;-64
2022/05/30 03:08:20;;;;;;;;;;;13.70;69.80;;;;;;4936847;29;20006;-67
2022/05/30 03:10:46;;;;;;;;;;;13.50;70.00;;;;;;4936901;29;20336;-59
2022/05/30 03:13:11;;;;;;;;;;;13.50;70.20;;;;;;4936760;29;19911;-58
2022/05/30 03:15:37;;;;;;;;;;;13.50;70.60;;;;;;4936472;29;20014;-71
2022/05/30 03:18:03;;;;;;;;;;;13.50;70.40;;;;;;4936448;29;19950;-67
2022/05/30 03:20:29;;;;;;;;;;;13.50;70.40;;;;;;4936762;29;20364;-68
2022/05/30 03:22:56;;;;;;;;;;;13.50;70.20;;;;;;4936531;29;20005;-59
2022/05/30 03:25:21;;;;;;;;;;;13.50;70.30;;;;;;4936315;29;19923;-62
2022/05/30 03:27:47;;;;;;;;;;;13.40;70.50;;;;;;4936526;29;19918;-62
2022/05/30 03:30:13;;;;;;;;;;;13.50;70.40;;;;;;4936693;29;19910;-63
2022/05/30 03:32:39;;;;;;;;;;;13.50;69.90;;;;;;4936274;29;19918;-63
2022/05/30 03:35:05;;;;;;;;;;;13.60;69.60;;;;;;4936382;29;19917;-68
2022/05/30 03:37:31;;;;;;;;;;;13.60;69.60;;;;;;4936640;29;19911;-71
2022/05/30 03:39:56;;;;;;;;;;;13.60;69.60;;;;;;4936688;29;19918;-68
2022/05/30 03:42:22;;;;;;;;;;;13.60;69.40;;;;;;4935999;29;19911;-68
2022/05/30 03:44:48;;;;;;;;;;;13.60;69.40;;;;;;4936336;29;20022;-68
2022/05/30 03:47:14;;;;;;;;;;;13.60;69.30;;;;;;4936302;29;19923;-69
2022/05/30 03:49:40;;;;;;;;;;;13.60;69.20;;;;;;4936567;29;20371;-69
2022/05/30 03:52:06;;;;;;;;;;;13.70;69.20;;;;;;4936275;29;20252;-72
2022/05/30 03:54:31;;;;;;;;;;;13.70;68.70;;;;;;4936251;29;19922;-70
2022/05/30 03:56:57;;;;;;;;;;;13.70;68.70;;;;;;4936289;29;19911;-71
2022/05/30 03:59:22;;;;;;;;;;;13.80;68.10;;;;;;4936488;29;19911;-72
2022/05/30 04:01:48;;;;;;;;;;;13.90;68.00;;;;;;4935944;29;20013;-70
2022/05/30 04:04:13;;;;;;;;;;;13.90;67.90;;;;;;4936602;29;19925;-71
2022/05/30 04:06:39;;;;;;;;;;;13.80;67.80;;;;;;4936166;29;20356;-70
2022/05/30 04:09:06;;;;;;;;;;;13.90;67.50;;;;;;4936021;29;19911;-71
2022/05/30 04:11:31;;;;;;;;;;;14.00;66.80;;;;;;4936205;29;20013;-70
2022/05/30 04:13:57;;;;;;;;;;;14.00;66.90;;;;;;4936201;29;19954;-66
2022/05/30 04:16:23;;;;;;;;;;;14.00;66.60;;;;;;4936335;29;19959;-65
2022/05/30 04:18:48;;;;;;;;;;;14.00;66.60;;;;;;4936213;29;19918;-63
2022/05/30 04:21:14;;;;;;;;;;;14.10;66.60;;;;;;4936650;29;19911;-56
2022/05/30 04:23:42;;;;;;;;;;;14.10;66.00;;;;;;4919522;29;19911;-59
2022/05/30 04:26:08;;;;;;;;;;;14.10;66.10;;;;;;4937136;29;19922;-64
2022/05/30 04:28:34;;;;;;;;;;;14.10;66.10;;;;;;4936040;29;19915;-65
2022/05/30 04:31:03;;;;;;;;;;;14.10;66.10;;;;;;4936749;29;20435;-63
2022/05/30 04:33:31;;;;;;;;;;;14.20;65.90;;;;;;4939369;29;19954;-64
2022/05/30 04:35:57;;;;;;;;;;;14.10;66.30;;;;;;4939493;29;19965;-64
2022/05/30 04:38:22;;;;;;;;;;;14.10;66.60;;;;;;4939451;29;19950;-65
2022/05/30 04:40:48;;;;;;;;;;;14.10;66.80;;;;;;4939287;29;19919;-65
2022/05/30 04:43:13;;;;;;;;;;;14.10;66.70;;;;;;4939335;29;19917;-61
2022/05/30 04:45:39;;;;;;;;;;;14.10;66.80;;;;;;4938848;29;19955;-66
2022/05/30 04:48:05;;;;;;;;;;;14.10;67.40;;;;;;4939176;29;19915;-65
2022/05/30 04:50:30;;;;;;;;;;;14.10;67.20;;;;;;4939071;29;19915;-63
2022/05/30 04:52:56;;;;;;;;;;;14.10;67.60;;;;;;4938845;29;19910;-71
2022/05/30 04:55:21;;;;;;;;;;;14.10;68.30;;;;;;4939069;29;19914;-67
2022/05/30 04:57:48;;;;;;;;;;;14.00;68.40;;;;;;4939061;29;19911;-62
2022/05/30 05:00:15;;;;;;;;;;;14.00;69.00;;;;;;4939147;29;19915;-67
2022/05/30 05:02:41;;;;;;;;;;;14.00;69.00;;;;;;4939090;29;20316;-64
2022/05/30 05:05:07;;;;;;;;;;;14.00;69.30;;;;;;4938856;29;19984;-66
2022/05/30 05:07:55;;;;;;;;;;;14.00;69.40;;;;;;4938756;29;19917;-67
2022/05/30 05:10:47;;;;;;;;;;;14.10;69.20;;;;;;4920441;29;20347;-63
2022/05/30 05:13:12;;;;;;;;;;;14.10;69.60;;;;;;4936591;29;19918;-60
2022/05/30 05:15:38;;;;;;;;;;;14.10;69.30;;;;;;4938657;29;19910;-60
2022/05/30 05:18:04;;;;;;;;;;;14.20;69.30;;;;;;4938679;29;19957;-59
2022/05/30 05:20:35;;;;;;;;;;;14.10;69.20;;;;;;4938431;29;19911;-57
2022/05/30 05:23:00;;;;;;;;;;;14.10;69.40;;;;;;4938350;29;19914;-58
2022/05/30 05:25:26;;;;;;;;;;;14.20;69.30;;;;;;4938286;29;19943;-59
2022/05/30 05:27:51;;;;;;;;;;;14.20;69.40;;;;;;4938025;29;20005;-58
2022/05/30 05:30:17;;;;;;;;;;;14.20;69.10;;;;;;4938258;29;19911;-67
2022/05/30 05:32:43;;;;;;;;;;;14.30;68.80;;;;;;4938374;29;19918;-61
2022/05/30 05:35:08;;;;;;;;;;;14.40;69.00;;;;;;4938283;29;20284;-61
2022/05/30 05:37:34;;;;;;;;;;;14.40;68.50;;;;;;4921166;29;19911;-67
2022/05/30 05:39:59;;;;;;;;;;;14.40;68.40;;;;;;4937858;29;19966;-68
2022/05/30 05:42:25;;;;;;;;;;;14.50;68.40;;;;;;4937117;29;20364;-67
2022/05/30 05:44:51;;;;;;;;;;;14.50;68.50;;;;;;4938285;29;19918;-73
2022/05/30 05:47:16;;;;;;;;;;;14.50;68.70;;;;;;4937823;29;20009;-69
2022/05/30 05:49:42;;;;;;;;;;;14.50;68.60;;;;;;4937892;29;19923;-72
2022/05/30 05:52:07;;;;;;;;;;;14.50;68.50;;;;;;4938022;29;19958;-57
2022/05/30 05:54:33;;;;;;;;;;;14.60;68.40;;;;;;4937909;29;20019;-60
2022/05/30 05:56:58;;;;;;;;;;;14.60;68.60;;;;;;4938005;29;19910;-58
2022/05/30 05:59:24;;;;;;;;;;;14.70;68.00;;;;;;4937725;29;19917;-58
2022/05/30 06:01:50;;;;;;;;;;;14.70;68.30;;;;;;4937768;29;19958;-57
2022/05/30 06:04:16;;;;;;;;;;;14.70;68.10;;;;;;4937483;29;20435;-57
2022/05/30 06:06:42;;;;;;;;;;;14.70;67.90;;;;;;4937596;29;19919;-58
2022/05/30 06:09:07;;;;;;;;;;;14.60;67.90;;;;;;4937475;29;20407;-58
2022/05/30 06:11:33;;;;;;;;;;;14.60;68.10;;;;;;4937572;29;20363;-57
2022/05/30 06:13:59;;;;;;;;;;;14.60;67.90;;;;;;4937478;29;19935;-57
2022/05/30 06:16:26;;;;;;;;;;;14.80;68.90;;;;;;4937089;29;19911;-62
2022/05/30 06:18:53;;;;;;;;;;;14.90;68.10;;;;;;4937889;29;20244;-59
2022/05/30 06:21:18;;;;;;;;;;;15.20;67.50;;;;;;4937293;29;19994;-59
2022/05/30 06:23:45;;;;;;;;;;;15.30;66.30;;;;;;4937199;29;19918;-60
2022/05/30 06:26:11;;;;;;;;;;;15.50;66.60;;;;;;4937272;29;19911;-57
2022/05/30 06:28:37;;;;;;;;;;;15.40;66.10;;;;;;4937010;29;19911;-56
2022/05/30 06:31:19;;;;;;;;;;;15.50;65.90;;;;;;4937102;29;19911;-62
2022/05/30 06:33:45;;;;;;;;;;;15.60;65.40;;;;;;4936602;29;20371;-57
2022/05/30 06:36:12;;;;;;;;;;;15.70;64.80;;;;;;4936655;29;19917;-57
2022/05/30 06:38:38;;;;;;;;;;;15.70;64.50;;;;;;4937097;29;20280;-58
2022/05/30 06:41:09;;;;;;;;;;;15.70;64.30;;;;;;4937028;29;19910;-58
2022/05/30 06:43:35;;;;;;;;;;;15.60;64.30;;;;;;4936353;29;19910;-57
2022/05/30 06:46:02;;;;;;;;;;;15.60;64.20;;;;;;4936334;29;20287;-57
2022/05/30 06:48:28;;;;;;;;;;;15.60;64.50;;;;;;4919405;29;19915;-63
2022/05/30 06:50:53;;;;;;;;;;;15.70;63.50;;;;;;4936514;29;19911;-73
2022/05/30 06:53:19;;;;;;;;;;;15.70;63.50;;;;;;4936664;29;20438;-61
2022/05/30 06:55:49;;;;;;;;;;;15.50;63.70;;;;;;4936601;29;19954;-60
2022/05/30 06:58:15;;;;;;;;;;;15.40;63.90;;;;;;4935949;29;20006;-60
2022/05/30 07:00:44;;;;;;;;;;;15.40;63.90;;;;;;4936950;29;20415;-63
2022/05/30 07:03:11;;;;;;;;;;;15.40;64.30;;;;;;4936323;29;19911;-60
2022/05/30 07:05:38;;;;;;;;;;;15.30;64.00;;;;;;4919328;29;19919;-58
2022/05/30 07:08:03;;;;;;;;;;;15.20;64.90;;;;;;4936658;29;20305;-62
2022/05/30 07:10:30;;;;;;;;;;;15.30;64.60;;;;;;4936628;29;19911;-59
2022/05/30 07:12:57;;;;;;;;;;;15.40;63.80;;;;;;4936263;29;19917;-59
2022/05/30 07:15:23;;;;;;;;;;;15.40;63.40;;;;;;4936503;29;19910;-58
2022/05/30 07:17:48;;;;;;;;;;;15.40;63.00;;;;;;4936542;29;20387;-59
2022/05/30 07:20:14;;;;;;;;;;;15.50;63.40;;;;;;4935966;29;19918;-59
2022/05/30 07:22:40;;;;;;;;;;;15.50;62.70;;;;;;4936445;29;19911;-58
2022/05/30 07:25:06;;;;;;;;;;;15.70;62.50;;;;;;4936322;29;19919;-59
2022/05/30 07:27:32;;;;;;;;;;;15.80;62.60;;;;;;4936434;29;19997;-60
2022/05/30 07:29:57;;;;;;;;;;;16.10;61.00;;;;;;4936342;29;19954;-58
2022/05/30 07:32:23;;;;;;;;;;;16.20;60.70;;;;;;4943400;29;19921;-60
2022/05/30 07:34:48;;;;;;;;;;;16.20;60.60;;;;;;4945894;29;19967;-59
2022/05/30 07:37:14;;;;;;;;;;;16.10;60.30;;;;;;4944071;29;19917;-59
2022/05/30 07:39:39;;;;;;;;;;;16.10;61.90;;;;;;4945556;29;19910;-60
2022/05/30 07:42:06;;;;;;;;;;;16.30;60.70;;;;;;4945465;29;19953;-60
2022/05/30 07:44:32;;;;;;;;;;;16.50;60.50;;;;;;4943940;29;19974;-63
2022/05/30 07:46:57;;;;;;;;;;;16.70;59.80;;;;;;4935848;29;20013;-60
2022/05/30 07:49:23;;;;;;;;;;;16.70;59.70;;;;;;4936264;29;19921;-62
2022/05/30 07:51:49;;;;;;;;;;;16.60;59.70;;;;;;4936294;29;20350;-59
2022/05/30 07:54:15;;;;;;;;;;;16.70;60.50;;;;;;4936007;29;19915;-60
2022/05/30 07:56:41;;;;;;;;;;;16.70;59.70;;;;;;4936168;29;19915;-59
2022/05/30 07:59:06;;;;;;;;;;;16.50;60.60;;;;;;4936191;29;19958;-58
2022/05/30 08:01:32;;;;;;;;;;;16.40;60.90;;;;;;4935981;29;20350;-60
2022/05/30 08:03:57;;;;;;;;;;;16.50;60.30;;;;;;4935741;29;19911;-63
2022/05/30 08:06:24;;;;;;;;;;;16.60;60.60;;;;;;4936983;29;19921;-61
2022/05/30 08:08:51;;;;;;;;;;;16.70;60.30;;;;;;4939521;29;19911;-74
2022/05/30 08:11:17;;;;;;;;;;;16.80;60.10;;;;;;4943064;23;20288;-57
2022/05/30 08:13:43;;;;;;;;;;;16.80;58.90;;;;;;4920542;29;19915;-57
2022/05/30 08:16:09;;;;;;;;;;;16.90;59.00;;;;;;4920274;29;20423;-57
2022/05/30 08:18:34;;;;;;;;;;;16.70;59.40;;;;;;4920668;29;19911;-59
2022/05/30 08:21:00;;;;;;;;;;;16.60;59.90;;;;;;4920311;29;20303;-60
2022/05/30 08:23:27;;;;;;;;;;;16.50;59.80;;;;;;4919590;29;19937;-56
2022/05/30 08:25:53;;;;;;;;;;;16.60;59.80;;;;;;4919415;29;19923;-60
2022/05/30 08:28:18;;;;;;;;;;;16.60;60.00;;;;;;4929372;29;19915;-58
2022/05/30 08:30:44;;;;;;;;;;;16.50;59.90;;;;;;4937861;29;19921;-57
2022/05/30 08:33:11;;;;;;;;;;;16.60;60.40;;;;;;4938577;29;20001;-61
2022/05/30 08:35:37;;;;;;;;;;;16.60;60.30;;;;;;4938851;29;19934;-60
2022/05/30 08:38:03;;;;;;;;;;;16.60;60.80;;;;;;4938919;29;19911;-60
2022/05/30 08:43:22;;;;;;;;;;;16.70;61.00;;;;;;4933810;29;19917;-61
2022/05/30 08:45:48;;;;;;;;;;;16.80;61.30;;;;;;4938426;29;19934;-61
2022/05/30 08:48:15;;;;;;;;;;;16.80;62.20;;;;;;4938719;29;19946;-59
2022/05/30 08:50:42;;;;;;;;;;;16.90;63.20;;;;;;4938779;29;20275;-60
2022/05/30 08:53:19;;;;;;;;;;;16.70;62.70;;;;;;4938754;29;19978;-57
2022/05/30 08:55:54;;;;;;;;;;;16.70;63.60;;;;;;4938865;29;19936;-59
2022/05/30 08:58:43;;;;;;;;;;;16.60;64.50;;;;;;4938781;29;20377;-59
2022/05/30 09:01:11;;;;;;;;;;;16.50;65.40;;;;;;4928263;29;19927;-57
2022/05/30 09:03:41;;;;;;;;;;;16.30;66.70;;;;;;4938856;29;19911;-59
2022/05/30 09:06:09;;;;;;;;;;;16.30;67.90;;;;;;4938556;29;19925;-63
2022/05/30 09:08:43;;;;;;;;;;;16.20;68.30;;;;;;4937544;29;19911;-59
2022/05/30 09:11:29;;;;;;;;;;;16.20;68.60;;;;;;4938394;29;19970;-58
2022/05/30 09:13:57;;;;;;;;;;;16.30;68.10;;;;;;4938125;29;19918;-57
2022/05/30 09:16:28;;;;;;;;;;;16.50;67.90;;;;;;4938428;29;19933;-57
2022/05/30 09:18:54;;;;;;;;;;;16.50;68.80;;;;;;4938285;29;19911;-58
2022/05/30 09:21:22;;;;;;;;;;;16.70;68.30;;;;;;4938565;29;19911;-59
2022/05/30 09:23:48;;;;;;;;;;;17.00;66.70;;;;;;4938465;29;20355;-58
2022/05/30 09:26:18;;;;;;;;;;;17.10;65.60;;;;;;4938390;29;20363;-59
2022/05/30 09:28:46;;;;;;;;;;;17.10;66.00;;;;;;4938467;29;19918;-58
2022/05/30 09:31:26;;;;;;;;;;;17.20;65.90;;;;;;4938022;29;19917;-59
2022/05/30 09:33:56;;;;;;;;;;;17.30;64.80;;;;;;4938455;29;19970;-59
2022/05/30 09:36:24;;;;;;;;;;;17.40;65.40;;;;;;4938007;29;19939;-57
2022/05/30 09:38:55;;;;;;;;;;;17.50;65.70;;;;;;4938089;29;20308;-58
2022/05/30 09:41:22;;;;;;;;;;;17.50;64.70;;;;;;4938264;29;19958;-58
2022/05/30 09:43:59;;;;;;;;;;;17.60;63.40;;;;;;4938145;29;19917;-59
2022/05/30 09:46:26;;;;;;;;;;;17.50;62.50;;;;;;4937968;29;20371;-59
2022/05/30 09:49:00;;;;;;;;;;;17.60;63.40;;;;;;4938178;29;19911;-59
2022/05/30 09:51:34;;;;;;;;;;;17.60;62.20;;;;;;4938098;29;19966;-61
2022/05/30 09:54:00;;;;;;;;;;;17.70;63.00;;;;;;4937638;29;19994;-59
2022/05/30 09:56:26;;;;;;;;;;;17.40;63.00;;;;;;4937810;29;20327;-61
2022/05/30 09:59:06;;;;;;;;;;;17.50;63.50;;;;;;4938064;29;19911;-58
2022/05/30 10:01:33;;;;;;;;;;;17.60;63.70;;;;;;4920764;29;19943;-59
2022/05/30 10:04:20;;;;;;;;;;;17.50;62.80;;;;;;4937366;29;19911;-59
2022/05/30 10:07:06;;;;;;;;;;;17.60;63.40;;;;;;4937853;29;20435;-58
2022/05/30 10:09:34;;;;;;;;;;;17.60;63.20;;;;;;4937969;29;20060;-59
2022/05/30 10:12:00;;;;;;;;;;;17.60;63.80;;;;;;4937386;29;19923;-58
2022/05/30 10:14:28;;;;;;;;;;;17.60;63.10;;;;;;4937327;29;19967;-58
2022/05/30 10:16:55;;;;;;;;;;;17.70;63.10;;;;;;4939834;29;19910;-58
2022/05/30 10:19:40;;;;;;;;;;;17.70;62.90;;;;;;4939025;29;19921;-57
2022/05/30 10:28:15;;;;;;;;;;;17.80;61.70;;;;;;4937465;29;19964;-59
2022/05/30 10:30:56;;;;;;;;;;;17.70;61.70;;;;;;4937080;29;19938;-60
2022/05/30 10:33:34;;;;;;;;;;;17.70;62.00;;;;;;4937102;29;19910;-59
2022/05/30 10:36:11;;;;;;;;;;;17.80;61.90;;;;;;4936915;29;19911;-61
2022/05/30 10:39:11;;;;;;;;;;;17.80;62.10;;;;;;4936333;29;19922;-60
2022/05/30 10:41:41;;;;;;;;;;;17.70;61.30;;;;;;4898900;29;19922;-59
2022/05/30 10:44:16;;;;;;;;;;;17.80;61.40;;;;;;4931480;29;19915;-58
2022/05/30 10:46:54;;;;;;;;;;;17.80;61.60;;;;;;4936373;29;20387;-58
2022/05/30 10:49:21;;;;;;;;;;;17.80;61.60;;;;;;4936473;29;19911;-57
2022/05/30 10:51:50;;;;;;;;;;;17.90;61.50;;;;;;4936806;29;19946;-57
2022/05/30 10:54:21;;;;;;;;;;;17.80;61.70;;;;;;4930912;29;20075;-58
2022/05/30 10:56:50;;;;;;;;;;;17.70;61.60;;;;;;4917257;29;20372;-56
2022/05/30 10:59:19;;;;;;;;;;;17.90;62.00;;;;;;4917265;29;19915;-59
2022/05/30 11:01:47;;;;;;;;;;;17.90;62.10;;;;;;4916909;29;19949;-63
2022/05/30 11:04:13;;;;;;;;;;;17.90;61.80;;;;;;4916862;29;19918;-59
2022/05/30 11:06:40;;;;;;;;;;;17.90;62.30;;;;;;4916953;29;19915;-58
2022/05/30 11:09:23;;;;;;;;;;;17.90;62.90;;;;;;4916855;29;19918;-58
2022/05/30 11:11:57;;;;;;;;;;;17.90;62.90;;;;;;4916799;29;20018;-59
2022/05/30 11:14:32;;;;;;;;;;;17.90;63.00;;;;;;4916650;29;19918;-60
2022/05/30 11:17:01;;;;;;;;;;;17.90;62.40;;;;;;4916562;29;19912;-65
2022/05/30 11:19:33;;;;;;;;;;;17.80;62.50;;;;;;4917068;29;20221;-60
2022/05/30 11:22:21;;;;;;;;;;;17.80;64.00;;;;;;4916650;29;19922;-58
2022/05/30 11:24:49;;;;;;;;;;;17.70;65.50;;;;;;4916771;29;20006;-58
2022/05/30 11:27:15;;;;;;;;;;;17.70;66.90;;;;;;4916760;29;19918;-58
2022/05/30 11:29:46;;;;;;;;;;;17.80;66.70;;;;;;4916668;29;19915;-60
2022/05/30 11:32:25;;;;;;;;;;;17.90;66.60;;;;;;4916795;29;19912;-57
2022/05/30 11:34:57;;;;;;;;;;;18.10;65.60;;;;;;4916888;29;20106;-59
2022/05/30 11:37:28;;;;;;;;;;;18.20;66.10;;;;;;4916588;29;20359;-59
2022/05/30 11:39:54;;;;;;;;;;;18.30;65.50;;;;;;4916546;29;19935;-59
2022/05/30 11:42:19;;;;;;;;;;;18.40;65.40;;;;;;4919738;29;19911;-59
2022/05/30 11:44:59;;;;;;;;;;;18.30;65.30;;;;;;4920558;29;19919;-59
2022/05/30 11:47:43;;;;;;;;;;;18.20;66.20;;;;;;4908673;29;19915;-61
2022/05/30 11:50:15;;;;;;;;;;;18.50;66.80;;;;;;4933622;29;19911;-58
2022/05/30 11:53:00;;;;;;;;;;;18.90;65.30;;;;;;4933720;29;20291;-60
2022/05/30 11:55:41;;;;;;;;;;;19.10;64.10;;;;;;4919874;29;19954;-59
2022/05/30 11:58:11;;;;;;;;;;;19.00;62.90;;;;;;4920293;29;20381;-61
2022/05/30 12:00:41;;;;;;;;;;;19.20;63.90;;;;;;4920265;29;19912;-61
2022/05/30 12:03:22;;;;;;;;;;;19.00;61.90;;;;;;4920607;29;19934;-63
2022/05/30 12:05:50;;;;;;;;;;;19.00;62.40;;;;;;4920261;29;19962;-60
2022/05/30 12:08:16;;;;;;;;;;;18.80;63.40;;;;;;4935040;29;20006;-62
2022/05/30 12:10:47;;;;;;;;;;;18.70;64.40;;;;;;4920124;29;20363;-65
2022/05/30 12:13:13;;;;;;;;;;;18.90;63.70;;;;;;4920126;29;19949;-63
2022/05/30 12:15:41;;;;;;;;;;;19.20;63.40;;;;;;4920199;29;19957;-61
2022/05/30 12:24:01;;;;;;;;;;;19.60;62.20;;;;;;4901467;29;19911;-64
2022/05/30 12:26:45;;;;;;;;;;;19.90;61.20;;;;;;4919751;29;19919;-60
2022/05/30 12:29:29;;;;;;;;;;;20.00;61.10;;;;;;4919820;29;20315;-73
2022/05/30 12:32:16;;;;;;;;;;;19.70;59.70;;;;;;4919797;29;19917;-65
2022/05/30 12:35:00;;;;;;;;;;;19.60;60.90;;;;;;4919487;29;19915;-67
2022/05/30 12:37:38;;;;;;;;;;;19.40;61.60;;;;;;4919905;29;19918;-65
2022/05/30 12:40:04;;;;;;;;;;;19.40;62.70;;;;;;4919485;29;20250;-64
2022/05/30 12:42:34;;;;;;;;;;;19.50;61.70;;;;;;4919368;29;20046;-63
2022/05/30 12:45:14;;;;;;;;;;;19.70;60.80;;;;;;4919336;29;19919;-64
2022/05/30 12:47:47;;;;;;;;;;;19.50;60.80;;;;;;4918893;29;19915;-61
2022/05/30 12:50:14;;;;;;;;;;;19.50;61.40;;;;;;4921439;29;19927;-59
2022/05/30 12:52:52;;;;;;;;;;;19.70;61.30;;;;;;4916318;29;19967;-61
2022/05/30 12:55:30;;;;;;;;;;;19.80;59.60;;;;;;4919131;29;19946;-57
2022/05/30 12:57:56;;;;;;;;;;;19.80;59.60;;;;;;4918833;29;19911;-57
2022/05/30 13:00:21;;;;;;;;;;;20.10;59.80;;;;;;4920535;29;19911;-59
2022/05/30 13:02:53;;;;;;;;;;;20.00;60.10;;;;;;4935023;29;19915;-59
2022/05/30 13:05:22;;;;;;;;;;;20.10;59.30;;;;;;4937986;29;19919;-57
2022/05/30 13:07:48;;;;;;;;;;;20.40;59.10;;;;;;4938265;29;19911;-58
2022/05/30 13:10:14;;;;;;;;;;;20.40;58.70;;;;;;4937934;29;19921;-59
2022/05/30 13:12:52;;;;;;;;;;;20.30;59.30;;;;;;4938056;29;20006;-56
2022/05/30 13:15:30;;;;;;;;;;;20.40;59.10;;;;;;4935432;29;20380;-57
2022/05/30 13:18:00;;;;;;;;;;;20.50;58.70;;;;;;4934761;29;19911;-58
2022/05/30 13:20:32;;;;;;;;;;;20.50;58.50;;;;;;4937818;29;20430;-58
2022/05/30 13:22:59;;;;;;;;;;;20.50;58.40;;;;;;4937621;29;19954;-57
2022/05/30 13:25:28;;;;;;;;;;;20.60;58.40;;;;;;4937934;29;19919;-59
2022/05/30 13:27:53;;;;;;;;;;;20.60;58.70;;;;;;4938144;29;19911;-57
2022/05/30 13:30:27;;;;;;;;;;;20.60;59.10;;;;;;4938244;29;20006;-57
2022/05/30 13:32:52;;;;;;;;;;;20.60;59.10;;;;;;4937995;29;19911;-57
2022/05/30 13:35:19;;;;;;;;;;;20.80;59.00;;;;;;4938297;29;19918;-61
2022/05/30 13:37:46;;;;;;;;;;;20.70;59.20;;;;;;4938298;29;20425;-59
2022/05/30 13:40:16;;;;;;;;;;;20.80;59.30;;;;;;4937911;29;19919;-59
2022/05/30 13:42:48;;;;;;;;;;;20.70;59.20;;;;;;4937967;29;19910;-58
2022/05/30 13:45:15;;;;;;;;;;;20.60;59.40;;;;;;4937451;29;20294;-59
2022/05/30 13:47:41;;;;;;;;;;;20.60;59.70;;;;;;4937303;29;19915;-58
2022/05/30 13:50:07;;;;;;;;;;;20.50;59.70;;;;;;4937770;29;19915;-59
2022/05/30 13:52:36;;;;;;;;;;;20.40;60.10;;;;;;4937570;29;19915;-58
2022/05/30 13:55:05;;;;;;;;;;;20.30;61.10;;;;;;4937674;29;20006;-59
2022/05/30 13:57:31;;;;;;;;;;;20.30;60.70;;;;;;4937701;29;19918;-58
2022/05/30 14:00:01;;;;;;;;;;;20.30;61.60;;;;;;4937751;29;19966;-59
2022/05/30 14:02:28;;;;;;;;;;;20.30;61.50;;;;;;4937438;29;19911;-57
2022/05/30 14:05:05;;;;;;;;;;;20.20;61.20;;;;;;4936773;29;19919;-57
2022/05/30 14:07:38;;;;;;;;;;;20.10;61.90;;;;;;4920376;29;19911;-57
2022/05/30 14:10:06;;;;;;;;;;;20.20;61.90;;;;;;4937459;29;19915;-58
2022/05/30 14:12:37;;;;;;;;;;;20.10;61.70;;;;;;4937098;29;19930;-57
2022/05/30 14:15:18;;;;;;;;;;;20.00;61.90;;;;;;4937252;29;20042;-59
2022/05/30 14:17:47;;;;;;;;;;;20.00;62.00;;;;;;4937452;29;19915;-59
2022/05/30 14:20:14;;;;;;;;;;;20.10;62.50;;;;;;4937529;29;20283;-57
2022/05/30 14:22:49;;;;;;;;;;;20.00;63.00;;;;;;4937166;29;19918;-59
2022/05/30 14:25:25;;;;;;;;;;;19.90;62.80;;;;;;4936924;29;20035;-57
2022/05/30 14:27:51;;;;;;;;;;;20.00;63.60;;;;;;4937311;29;19914;-57
2022/05/30 14:30:30;;;;;;;;;;;20.00;63.00;;;;;;4937165;29;19958;-57
2022/05/30 14:33:21;;;;;;;;;;;20.10;62.60;;;;;;4937048;29;19911;-58
2022/05/30 14:35:47;;;;;;;;;;;20.10;62.60;;;;;;4934076;29;19910;-57
2022/05/30 14:38:28;;;;;;;;;;;20.10;62.30;;;;;;4936927;29;19933;-58
2022/05/30 14:41:00;;;;;;;;;;;20.10;62.30;;;;;;4937047;29;19911;-57
2022/05/30 14:43:28;;;;;;;;;;;20.20;62.40;;;;;;4936803;29;19959;-57
2022/05/30 14:46:11;;;;;;;;;;;20.30;61.60;;;;;;4936656;29;20428;-59
2022/05/30 14:48:51;;;;;;;;;;;20.40;61.90;;;;;;4919643;29;20278;-57